sensor_id;sensor_type;location;lat;lon;timestamp;P1;durP1;ratioP1;P2;durP2;ratioP2
52878;SDS011;38747;53.140;6.498;2023-05-10T00:00:52;9.67;;;5.67;;
52878;SDS011;38747;53.140;6.498;2023-05-10T00:03:17;9.73;;;5.37;;
52878;SDS011;38747;53.140;6.498;2023-05-10T00:05:43;10.23;;;5.97;;
52878;SDS011;38747;53.140;6.498;2023-05-10T00:08:08;10.13;;;5.60;;
52878;SDS011;38747;53.140;6.498;2023-05-10T00:10:34;9.47;;;5.70;;
52878;SDS011;38747;53.140;6.498;2023-05-10T00:13:01;10.02;;;5.75;;
52878;SDS011;38747;53.140;6.498;2023-05-10T00:15:26;10.48;;;6.15;;
52878;SDS011;38747;53.140;6.498;2023-05-10T00:17:52;11.07;;;6.67;;
52878;SDS011;38747;53.140;6.498;2023-05-10T00:20:18;10.02;;;6.10;;
52878;SDS011;38747;53.140;6.498;2023-05-10T00:22:43;9.63;;;5.87;;
52878;SDS011;38747;53.140;6.498;2023-05-10T00:25:09;10.07;;;6.28;;
52878;SDS011;38747;53.140;6.498;2023-05-10T00:27:35;9.93;;;6.00;;
52878;SDS011;38747;53.140;6.498;2023-05-10T00:30:01;9.63;;;5.63;;
52878;SDS011;38747;53.140;6.498;2023-05-10T00:32:26;9.90;;;6.20;;
52878;SDS011;38747;53.140;6.498;2023-05-10T00:34:52;9.25;;;5.43;;
52878;SDS011;38747;53.140;6.498;2023-05-10T00:37:17;8.87;;;5.70;;
52878;SDS011;38747;53.140;6.498;2023-05-10T00:39:43;9.15;;;5.60;;
52878;SDS011;38747;53.140;6.498;2023-05-10T00:42:09;9.93;;;5.53;;
52878;SDS011;38747;53.140;6.498;2023-05-10T00:44:34;8.67;;;5.20;;
52878;SDS011;38747;53.140;6.498;2023-05-10T00:47:00;8.07;;;4.73;;
52878;SDS011;38747;53.140;6.498;2023-05-10T00:49:25;7.97;;;4.50;;
52878;SDS011;38747;53.140;6.498;2023-05-10T00:51:51;7.30;;;4.60;;
52878;SDS011;38747;53.140;6.498;2023-05-10T00:54:17;9.60;;;4.67;;
52878;SDS011;38747;53.140;6.498;2023-05-10T00:56:43;7.10;;;3.93;;
52878;SDS011;38747;53.140;6.498;2023-05-10T00:59:13;10.07;;;4.90;;
52878;SDS011;38747;53.140;6.498;2023-05-10T01:01:43;7.97;;;4.60;;
52878;SDS011;38747;53.140;6.498;2023-05-10T01:04:10;8.75;;;4.80;;
52878;SDS011;38747;53.140;6.498;2023-05-10T01:06:40;7.63;;;4.60;;
52878;SDS011;38747;53.140;6.498;2023-05-10T01:09:07;10.02;;;5.00;;
52878;SDS011;38747;53.140;6.498;2023-05-10T01:11:33;8.27;;;4.78;;
52878;SDS011;38747;53.140;6.498;2023-05-10T01:14:01;8.40;;;4.90;;
52878;SDS011;38747;53.140;6.498;2023-05-10T01:16:27;9.40;;;5.00;;
52878;SDS011;38747;53.140;6.498;2023-05-10T01:18:57;8.82;;;4.70;;
52878;SDS011;38747;53.140;6.498;2023-05-10T01:21:41;8.65;;;4.88;;
52878;SDS011;38747;53.140;6.498;2023-05-10T01:30:08;8.93;;;5.65;;
52878;SDS011;38747;53.140;6.498;2023-05-10T01:32:44;9.05;;;5.13;;
52878;SDS011;38747;53.140;6.498;2023-05-10T01:41:08;9.20;;;5.00;;
52878;SDS011;38747;53.140;6.498;2023-05-10T01:43:50;10.50;;;5.63;;
52878;SDS011;38747;53.140;6.498;2023-05-10T01:46:35;11.20;;;5.93;;
52878;SDS011;38747;53.140;6.498;2023-05-10T01:49:03;10.18;;;5.82;;
52878;SDS011;38747;53.140;6.498;2023-05-10T01:51:41;10.38;;;6.25;;
52878;SDS011;38747;53.140;6.498;2023-05-10T01:54:12;10.73;;;5.90;;
52878;SDS011;38747;53.140;6.498;2023-05-10T01:56:39;10.40;;;5.63;;
52878;SDS011;38747;53.140;6.498;2023-05-10T01:59:09;11.68;;;6.15;;
52878;SDS011;38747;53.140;6.498;2023-05-10T02:01:39;10.27;;;5.75;;
52878;SDS011;38747;53.140;6.498;2023-05-10T02:04:06;11.25;;;5.47;;
52878;SDS011;38747;53.140;6.498;2023-05-10T02:06:34;9.50;;;5.43;;
52878;SDS011;38747;53.140;6.498;2023-05-10T02:09:01;10.95;;;6.05;;
52878;SDS011;38747;53.140;6.498;2023-05-10T02:11:28;10.38;;;6.03;;
52878;SDS011;38747;53.140;6.498;2023-05-10T02:13:55;9.73;;;5.15;;
52878;SDS011;38747;53.140;6.498;2023-05-10T02:16:23;9.20;;;5.18;;
52878;SDS011;38747;53.140;6.498;2023-05-10T02:18:51;8.43;;;4.87;;
52878;SDS011;38747;53.140;6.498;2023-05-10T02:21:19;9.90;;;5.35;;
52878;SDS011;38747;53.140;6.498;2023-05-10T02:23:46;8.93;;;4.97;;
52878;SDS011;38747;53.140;6.498;2023-05-10T02:26:13;9.98;;;5.03;;
52878;SDS011;38747;53.140;6.498;2023-05-10T02:28:40;9.82;;;5.43;;
52878;SDS011;38747;53.140;6.498;2023-05-10T02:31:07;11.20;;;5.47;;
52878;SDS011;38747;53.140;6.498;2023-05-10T02:33:34;9.07;;;5.40;;
52878;SDS011;38747;53.140;6.498;2023-05-10T02:36:02;9.73;;;5.68;;
52878;SDS011;38747;53.140;6.498;2023-05-10T02:38:28;10.50;;;6.03;;
52878;SDS011;38747;53.140;6.498;2023-05-10T02:40:56;10.15;;;5.78;;
52878;SDS011;38747;53.140;6.498;2023-05-10T02:43:23;11.73;;;5.20;;
52878;SDS011;38747;53.140;6.498;2023-05-10T02:45:50;13.73;;;6.60;;
52878;SDS011;38747;53.140;6.498;2023-05-10T02:48:16;11.52;;;6.30;;
52878;SDS011;38747;53.140;6.498;2023-05-10T02:50:43;12.50;;;6.80;;
52878;SDS011;38747;53.140;6.498;2023-05-10T02:53:10;12.87;;;6.33;;
52878;SDS011;38747;53.140;6.498;2023-05-10T02:55:41;14.10;;;7.30;;
52878;SDS011;38747;53.140;6.498;2023-05-10T02:58:14;13.30;;;6.82;;
52878;SDS011;38747;53.140;6.498;2023-05-10T03:00:39;13.07;;;7.20;;
52878;SDS011;38747;53.140;6.498;2023-05-10T03:03:05;15.93;;;7.83;;
52878;SDS011;38747;53.140;6.498;2023-05-10T03:05:31;14.98;;;7.35;;
52878;SDS011;38747;53.140;6.498;2023-05-10T03:07:58;15.85;;;7.75;;
52878;SDS011;38747;53.140;6.498;2023-05-10T03:10:28;17.67;;;9.03;;
52878;SDS011;38747;53.140;6.498;2023-05-10T03:13:16;16.38;;;8.52;;
52878;SDS011;38747;53.140;6.498;2023-05-10T03:18:28;18.02;;;8.73;;
52878;SDS011;38747;53.140;6.498;2023-05-10T03:20:57;17.60;;;9.43;;
52878;SDS011;38747;53.140;6.498;2023-05-10T03:23:27;18.57;;;9.80;;
52878;SDS011;38747;53.140;6.498;2023-05-10T03:26:05;21.25;;;9.15;;
52878;SDS011;38747;53.140;6.498;2023-05-10T03:28:32;19.83;;;9.13;;
52878;SDS011;38747;53.140;6.498;2023-05-10T03:31:00;18.00;;;8.88;;
52878;SDS011;38747;53.140;6.498;2023-05-10T03:33:27;20.20;;;9.27;;
52878;SDS011;38747;53.140;6.498;2023-05-10T03:35:53;19.57;;;8.53;;
52878;SDS011;38747;53.140;6.498;2023-05-10T03:38:19;19.48;;;8.63;;
52878;SDS011;38747;53.140;6.498;2023-05-10T03:40:44;20.23;;;9.10;;
52878;SDS011;38747;53.140;6.498;2023-05-10T03:43:10;22.63;;;9.25;;
52878;SDS011;38747;53.140;6.498;2023-05-10T03:45:35;21.10;;;9.23;;
52878;SDS011;38747;53.140;6.498;2023-05-10T03:48:01;19.88;;;8.75;;
52878;SDS011;38747;53.140;6.498;2023-05-10T03:50:27;19.77;;;9.33;;
52878;SDS011;38747;53.140;6.498;2023-05-10T03:52:52;19.03;;;8.57;;
52878;SDS011;38747;53.140;6.498;2023-05-10T03:55:18;20.92;;;9.00;;
52878;SDS011;38747;53.140;6.498;2023-05-10T03:57:43;16.57;;;8.67;;
52878;SDS011;38747;53.140;6.498;2023-05-10T04:00:09;17.30;;;8.20;;
52878;SDS011;38747;53.140;6.498;2023-05-10T04:02:35;18.30;;;8.07;;
52878;SDS011;38747;53.140;6.498;2023-05-10T04:05:01;18.83;;;8.98;;
52878;SDS011;38747;53.140;6.498;2023-05-10T04:07:27;15.55;;;8.68;;
52878;SDS011;38747;53.140;6.498;2023-05-10T04:09:53;15.80;;;8.17;;
52878;SDS011;38747;53.140;6.498;2023-05-10T04:12:19;16.05;;;7.90;;
52878;SDS011;38747;53.140;6.498;2023-05-10T04:14:44;15.93;;;8.57;;
52878;SDS011;38747;53.140;6.498;2023-05-10T04:17:10;14.93;;;7.77;;
52878;SDS011;38747;53.140;6.498;2023-05-10T04:19:36;15.90;;;7.63;;
52878;SDS011;38747;53.140;6.498;2023-05-10T04:22:02;15.70;;;7.65;;
52878;SDS011;38747;53.140;6.498;2023-05-10T04:24:28;13.30;;;7.32;;
52878;SDS011;38747;53.140;6.498;2023-05-10T04:26:54;13.50;;;6.53;;
52878;SDS011;38747;53.140;6.498;2023-05-10T04:29:19;12.45;;;6.53;;
52878;SDS011;38747;53.140;6.498;2023-05-10T04:31:45;13.82;;;6.65;;
52878;SDS011;38747;53.140;6.498;2023-05-10T04:34:11;12.87;;;6.40;;
52878;SDS011;38747;53.140;6.498;2023-05-10T04:36:36;12.45;;;6.30;;
52878;SDS011;38747;53.140;6.498;2023-05-10T04:39:02;12.10;;;6.50;;
52878;SDS011;38747;53.140;6.498;2023-05-10T04:41:28;10.82;;;6.40;;
52878;SDS011;38747;53.140;6.498;2023-05-10T04:43:54;10.03;;;5.43;;
52878;SDS011;38747;53.140;6.498;2023-05-10T04:46:20;11.68;;;5.78;;
52878;SDS011;38747;53.140;6.498;2023-05-10T04:48:46;10.40;;;5.60;;
52878;SDS011;38747;53.140;6.498;2023-05-10T04:51:12;8.87;;;4.80;;
52878;SDS011;38747;53.140;6.498;2023-05-10T04:53:38;10.20;;;4.70;;
52878;SDS011;38747;53.140;6.498;2023-05-10T04:56:03;7.60;;;4.10;;
52878;SDS011;38747;53.140;6.498;2023-05-10T04:58:29;7.53;;;3.60;;
52878;SDS011;38747;53.140;6.498;2023-05-10T05:00:55;6.63;;;3.00;;
52878;SDS011;38747;53.140;6.498;2023-05-10T05:03:21;7.17;;;3.07;;
52878;SDS011;38747;53.140;6.498;2023-05-10T05:05:47;6.53;;;2.80;;
52878;SDS011;38747;53.140;6.498;2023-05-10T05:08:13;6.88;;;3.20;;
52878;SDS011;38747;53.140;6.498;2023-05-10T05:10:38;6.13;;;2.90;;
52878;SDS011;38747;53.140;6.498;2023-05-10T05:13:04;6.60;;;2.80;;
52878;SDS011;38747;53.140;6.498;2023-05-10T05:15:30;6.20;;;2.63;;
52878;SDS011;38747;53.140;6.498;2023-05-10T05:17:56;6.53;;;2.80;;
52878;SDS011;38747;53.140;6.498;2023-05-10T05:20:22;6.30;;;2.50;;
52878;SDS011;38747;53.140;6.498;2023-05-10T05:22:47;5.75;;;2.45;;
52878;SDS011;38747;53.140;6.498;2023-05-10T05:25:13;5.20;;;2.40;;
52878;SDS011;38747;53.140;6.498;2023-05-10T05:27:40;6.60;;;3.00;;
52878;SDS011;38747;53.140;6.498;2023-05-10T05:30:06;4.73;;;2.37;;
52878;SDS011;38747;53.140;6.498;2023-05-10T05:32:32;7.00;;;2.55;;
52878;SDS011;38747;53.140;6.498;2023-05-10T05:34:57;5.45;;;2.50;;
52878;SDS011;38747;53.140;6.498;2023-05-10T05:37:23;5.87;;;2.20;;
52878;SDS011;38747;53.140;6.498;2023-05-10T05:39:49;4.95;;;2.22;;
52878;SDS011;38747;53.140;6.498;2023-05-10T05:42:15;4.70;;;2.13;;
52878;SDS011;38747;53.140;6.498;2023-05-10T05:44:42;5.70;;;2.33;;
52878;SDS011;38747;53.140;6.498;2023-05-10T05:47:08;5.53;;;2.42;;
52878;SDS011;38747;53.140;6.498;2023-05-10T05:49:34;6.03;;;2.60;;
52878;SDS011;38747;53.140;6.498;2023-05-10T05:52:00;5.47;;;2.50;;
52878;SDS011;38747;53.140;6.498;2023-05-10T05:54:26;5.70;;;2.65;;
52878;SDS011;38747;53.140;6.498;2023-05-10T05:56:58;5.57;;;2.70;;
52878;SDS011;38747;53.140;6.498;2023-05-10T05:59:25;6.35;;;2.78;;
52878;SDS011;38747;53.140;6.498;2023-05-10T06:01:51;5.97;;;2.93;;
52878;SDS011;38747;53.140;6.498;2023-05-10T06:04:17;7.97;;;3.25;;
52878;SDS011;38747;53.140;6.498;2023-05-10T06:06:43;7.05;;;3.60;;
52878;SDS011;38747;53.140;6.498;2023-05-10T06:09:09;6.70;;;3.33;;
52878;SDS011;38747;53.140;6.498;2023-05-10T06:11:35;6.00;;;2.80;;
52878;SDS011;38747;53.140;6.498;2023-05-10T06:14:03;7.25;;;3.40;;
52878;SDS011;38747;53.140;6.498;2023-05-10T06:16:32;8.98;;;4.30;;
52878;SDS011;38747;53.140;6.498;2023-05-10T06:18:57;8.88;;;4.45;;
52878;SDS011;38747;53.140;6.498;2023-05-10T06:21:23;10.17;;;5.07;;
52878;SDS011;38747;53.140;6.498;2023-05-10T06:23:49;10.93;;;4.97;;
52878;SDS011;38747;53.140;6.498;2023-05-10T06:26:14;10.77;;;5.28;;
52878;SDS011;38747;53.140;6.498;2023-05-10T06:28:40;11.13;;;4.70;;
52878;SDS011;38747;53.140;6.498;2023-05-10T06:31:06;10.27;;;5.50;;
52878;SDS011;38747;53.140;6.498;2023-05-10T06:33:32;9.87;;;4.83;;
52878;SDS011;38747;53.140;6.498;2023-05-10T06:35:58;12.95;;;5.80;;
52878;SDS011;38747;53.140;6.498;2023-05-10T06:38:23;11.68;;;5.57;;
52878;SDS011;38747;53.140;6.498;2023-05-10T06:40:49;10.40;;;4.73;;
52878;SDS011;38747;53.140;6.498;2023-05-10T06:43:15;10.13;;;4.97;;
52878;SDS011;38747;53.140;6.498;2023-05-10T06:45:41;6.93;;;3.55;;
52878;SDS011;38747;53.140;6.498;2023-05-10T06:48:07;7.70;;;3.50;;
52878;SDS011;38747;53.140;6.498;2023-05-10T06:50:33;6.32;;;3.00;;
52878;SDS011;38747;53.140;6.498;2023-05-10T06:52:59;6.00;;;2.10;;
52878;SDS011;38747;53.140;6.498;2023-05-10T06:55:25;5.53;;;2.10;;
52878;SDS011;38747;53.140;6.498;2023-05-10T06:57:51;4.88;;;1.75;;
52878;SDS011;38747;53.140;6.498;2023-05-10T07:00:17;3.65;;;1.50;;
52878;SDS011;38747;53.140;6.498;2023-05-10T07:02:43;3.30;;;1.00;;
52878;SDS011;38747;53.140;6.498;2023-05-10T07:05:09;3.03;;;1.10;;
52878;SDS011;38747;53.140;6.498;2023-05-10T07:07:35;2.67;;;0.95;;
52878;SDS011;38747;53.140;6.498;2023-05-10T07:10:00;2.30;;;1.00;;
52878;SDS011;38747;53.140;6.498;2023-05-10T07:12:27;2.67;;;1.00;;
52878;SDS011;38747;53.140;6.498;2023-05-10T07:14:52;3.15;;;1.20;;
52878;SDS011;38747;53.140;6.498;2023-05-10T07:17:18;2.57;;;1.10;;
52878;SDS011;38747;53.140;6.498;2023-05-10T07:19:44;2.65;;;1.10;;
52878;SDS011;38747;53.140;6.498;2023-05-10T07:22:09;3.37;;;1.20;;
52878;SDS011;38747;53.140;6.498;2023-05-10T07:24:35;3.70;;;1.30;;
52878;SDS011;38747;53.140;6.498;2023-05-10T07:27:01;2.70;;;1.27;;
52878;SDS011;38747;53.140;6.498;2023-05-10T07:29:27;3.45;;;1.40;;
52878;SDS011;38747;53.140;6.498;2023-05-10T07:31:53;3.38;;;1.40;;
52878;SDS011;38747;53.140;6.498;2023-05-10T07:34:19;3.50;;;1.30;;
52878;SDS011;38747;53.140;6.498;2023-05-10T07:36:44;3.43;;;1.50;;
52878;SDS011;38747;53.140;6.498;2023-05-10T07:39:10;4.13;;;1.90;;
52878;SDS011;38747;53.140;6.498;2023-05-10T07:41:35;4.37;;;2.20;;
52878;SDS011;38747;53.140;6.498;2023-05-10T07:44:02;5.20;;;2.20;;
52878;SDS011;38747;53.140;6.498;2023-05-10T07:46:28;4.72;;;2.20;;
52878;SDS011;38747;53.140;6.498;2023-05-10T07:48:54;5.00;;;2.20;;
52878;SDS011;38747;53.140;6.498;2023-05-10T07:51:20;4.67;;;2.07;;
52878;SDS011;38747;53.140;6.498;2023-05-10T07:53:46;5.40;;;2.20;;
52878;SDS011;38747;53.140;6.498;2023-05-10T07:56:24;5.83;;;2.23;;
52878;SDS011;38747;53.140;6.498;2023-05-10T07:58:54;4.88;;;2.30;;
52878;SDS011;38747;53.140;6.498;2023-05-10T08:01:20;4.95;;;2.45;;
52878;SDS011;38747;53.140;6.498;2023-05-10T08:03:47;5.20;;;2.33;;
52878;SDS011;38747;53.140;6.498;2023-05-10T08:06:14;4.73;;;2.50;;
52878;SDS011;38747;53.140;6.498;2023-05-10T08:08:40;4.97;;;2.17;;
52878;SDS011;38747;53.140;6.498;2023-05-10T08:11:06;4.82;;;2.40;;
52878;SDS011;38747;53.140;6.498;2023-05-10T08:13:32;5.30;;;2.33;;
52878;SDS011;38747;53.140;6.498;2023-05-10T08:15:58;5.50;;;2.20;;
52878;SDS011;38747;53.140;6.498;2023-05-10T08:18:23;5.30;;;2.60;;
52878;SDS011;38747;53.140;6.498;2023-05-10T08:20:49;5.63;;;2.60;;
52878;SDS011;38747;53.140;6.498;2023-05-10T08:23:15;5.38;;;2.58;;
52878;SDS011;38747;53.140;6.498;2023-05-10T08:25:41;5.60;;;2.30;;
52878;SDS011;38747;53.140;6.498;2023-05-10T08:28:06;5.82;;;3.00;;
52878;SDS011;38747;53.140;6.498;2023-05-10T08:30:32;5.57;;;3.10;;
52878;SDS011;38747;53.140;6.498;2023-05-10T08:32:57;5.28;;;2.50;;
52878;SDS011;38747;53.140;6.498;2023-05-10T08:35:23;5.30;;;2.60;;
52878;SDS011;38747;53.140;6.498;2023-05-10T08:37:50;6.80;;;2.85;;
52878;SDS011;38747;53.140;6.498;2023-05-10T08:40:16;6.28;;;2.90;;
52878;SDS011;38747;53.140;6.498;2023-05-10T08:42:50;6.50;;;3.30;;
52878;SDS011;38747;53.140;6.498;2023-05-10T08:45:21;6.20;;;3.15;;
52878;SDS011;38747;53.140;6.498;2023-05-10T08:47:49;7.00;;;3.30;;
52878;SDS011;38747;53.140;6.498;2023-05-10T08:50:17;6.68;;;3.25;;
52878;SDS011;38747;53.140;6.498;2023-05-10T08:52:46;6.70;;;3.20;;
52878;SDS011;38747;53.140;6.498;2023-05-10T08:55:15;6.53;;;3.17;;
52878;SDS011;38747;53.140;6.498;2023-05-10T08:57:41;6.63;;;3.13;;
52878;SDS011;38747;53.140;6.498;2023-05-10T09:00:07;7.05;;;3.30;;
52878;SDS011;38747;53.140;6.498;2023-05-10T09:02:34;6.20;;;3.45;;
52878;SDS011;38747;53.140;6.498;2023-05-10T09:05:02;5.90;;;3.20;;
52878;SDS011;38747;53.140;6.498;2023-05-10T09:07:29;6.93;;;3.40;;
52878;SDS011;38747;53.140;6.498;2023-05-10T09:09:55;6.88;;;3.55;;
52878;SDS011;38747;53.140;6.498;2023-05-10T09:12:22;6.57;;;3.60;;
52878;SDS011;38747;53.140;6.498;2023-05-10T09:14:48;6.53;;;3.50;;
52878;SDS011;38747;53.140;6.498;2023-05-10T09:17:15;7.50;;;3.92;;
52878;SDS011;38747;53.140;6.498;2023-05-10T09:19:41;7.78;;;3.53;;
52878;SDS011;38747;53.140;6.498;2023-05-10T09:22:07;7.50;;;4.07;;
52878;SDS011;38747;53.140;6.498;2023-05-10T09:24:33;8.65;;;4.03;;
52878;SDS011;38747;53.140;6.498;2023-05-10T09:26:58;8.53;;;4.00;;
52878;SDS011;38747;53.140;6.498;2023-05-10T09:29:24;9.15;;;3.90;;
52878;SDS011;38747;53.140;6.498;2023-05-10T09:31:51;7.53;;;4.00;;
52878;SDS011;38747;53.140;6.498;2023-05-10T09:34:28;7.40;;;3.78;;
52878;SDS011;38747;53.140;6.498;2023-05-10T09:36:56;8.35;;;4.20;;
52878;SDS011;38747;53.140;6.498;2023-05-10T09:39:32;9.67;;;4.00;;
52878;SDS011;38747;53.140;6.498;2023-05-10T09:42:01;8.18;;;3.85;;
52878;SDS011;38747;53.140;6.498;2023-05-10T09:44:28;8.43;;;4.30;;
52878;SDS011;38747;53.140;6.498;2023-05-10T09:46:55;7.07;;;3.63;;
52878;SDS011;38747;53.140;6.498;2023-05-10T09:49:21;8.67;;;3.80;;
52878;SDS011;38747;53.140;6.498;2023-05-10T09:51:50;8.65;;;4.53;;
52878;SDS011;38747;53.140;6.498;2023-05-10T09:54:27;8.65;;;4.05;;
52878;SDS011;38747;53.140;6.498;2023-05-10T09:56:53;7.37;;;4.00;;
52878;SDS011;38747;53.140;6.498;2023-05-10T09:59:18;7.20;;;3.83;;
52878;SDS011;38747;53.140;6.498;2023-05-10T10:01:49;7.33;;;3.63;;
52878;SDS011;38747;53.140;6.498;2023-05-10T10:04:16;7.82;;;3.92;;
52878;SDS011;38747;53.140;6.498;2023-05-10T10:06:42;7.35;;;3.88;;
52878;SDS011;38747;53.140;6.498;2023-05-10T10:09:08;8.27;;;4.00;;
52878;SDS011;38747;53.140;6.498;2023-05-10T10:11:34;9.02;;;3.83;;
52878;SDS011;38747;53.140;6.498;2023-05-10T10:14:01;7.70;;;3.65;;
52878;SDS011;38747;53.140;6.498;2023-05-10T10:16:28;7.13;;;3.70;;
52878;SDS011;38747;53.140;6.498;2023-05-10T10:18:55;10.27;;;3.67;;
52878;SDS011;38747;53.140;6.498;2023-05-10T10:21:21;8.17;;;3.37;;
52878;SDS011;38747;53.140;6.498;2023-05-10T10:23:47;6.95;;;3.45;;
52878;SDS011;38747;53.140;6.498;2023-05-10T10:26:13;8.05;;;3.65;;
52878;SDS011;38747;53.140;6.498;2023-05-10T10:31:50;6.77;;;3.03;;
52878;SDS011;38747;53.140;6.498;2023-05-10T10:36:52;6.15;;;3.00;;
52878;SDS011;38747;53.140;6.498;2023-05-10T10:39:18;6.55;;;2.83;;
52878;SDS011;38747;53.140;6.498;2023-05-10T10:41:55;6.15;;;2.83;;
52878;SDS011;38747;53.140;6.498;2023-05-10T10:47:21;7.25;;;3.10;;
52878;SDS011;38747;53.140;6.498;2023-05-10T10:49:50;7.35;;;3.10;;
52878;SDS011;38747;53.140;6.498;2023-05-10T11:02:46;7.25;;;3.00;;
52878;SDS011;38747;53.140;6.498;2023-05-10T11:08:02;9.55;;;3.20;;
52878;SDS011;38747;53.140;6.498;2023-05-10T11:15:57;6.45;;;3.22;;
52878;SDS011;38747;53.140;6.498;2023-05-10T11:20:57;6.35;;;3.20;;
52878;SDS011;38747;53.140;6.498;2023-05-10T11:23:56;9.02;;;3.35;;
52878;SDS011;38747;53.140;6.498;2023-05-10T11:26:22;7.30;;;3.45;;
52878;SDS011;38747;53.140;6.498;2023-05-10T11:28:50;7.60;;;4.10;;
52878;SDS011;38747;53.140;6.498;2023-05-10T11:31:18;7.23;;;3.73;;
52878;SDS011;38747;53.140;6.498;2023-05-10T11:33:52;10.57;;;4.13;;
52878;SDS011;38747;53.140;6.498;2023-05-10T11:36:19;8.20;;;4.18;;
52878;SDS011;38747;53.140;6.498;2023-05-10T11:38:46;9.00;;;4.03;;
52878;SDS011;38747;53.140;6.498;2023-05-10T11:41:13;7.70;;;3.75;;
52878;SDS011;38747;53.140;6.498;2023-05-10T11:43:40;8.40;;;3.90;;
52878;SDS011;38747;53.140;6.498;2023-05-10T11:46:10;8.23;;;3.90;;
52878;SDS011;38747;53.140;6.498;2023-05-10T11:48:40;9.68;;;4.18;;
52878;SDS011;38747;53.140;6.498;2023-05-10T11:51:07;7.65;;;3.53;;
52878;SDS011;38747;53.140;6.498;2023-05-10T11:53:33;10.18;;;3.70;;
52878;SDS011;38747;53.140;6.498;2023-05-10T11:56:02;8.77;;;4.20;;
52878;SDS011;38747;53.140;6.498;2023-05-10T11:58:32;9.30;;;4.47;;
52878;SDS011;38747;53.140;6.498;2023-05-10T12:00:59;9.52;;;4.43;;
52878;SDS011;38747;53.140;6.498;2023-05-10T12:03:25;9.17;;;3.80;;
52878;SDS011;38747;53.140;6.498;2023-05-10T12:05:52;9.90;;;3.90;;
52878;SDS011;38747;53.140;6.498;2023-05-10T12:08:25;9.82;;;4.20;;
52878;SDS011;38747;53.140;6.498;2023-05-10T12:10:51;10.85;;;4.15;;
52878;SDS011;38747;53.140;6.498;2023-05-10T12:13:18;10.88;;;4.40;;
52878;SDS011;38747;53.140;6.498;2023-05-10T12:15:45;8.80;;;4.30;;
52878;SDS011;38747;53.140;6.498;2023-05-10T12:18:12;9.68;;;4.40;;
52878;SDS011;38747;53.140;6.498;2023-05-10T12:20:38;9.75;;;4.30;;
52878;SDS011;38747;53.140;6.498;2023-05-10T12:23:05;9.57;;;4.05;;
52878;SDS011;38747;53.140;6.498;2023-05-10T12:25:33;9.37;;;4.20;;
52878;SDS011;38747;53.140;6.498;2023-05-10T12:28:04;9.35;;;3.90;;
52878;SDS011;38747;53.140;6.498;2023-05-10T12:30:31;9.23;;;4.10;;
52878;SDS011;38747;53.140;6.498;2023-05-10T12:35:31;9.70;;;4.20;;
52878;SDS011;38747;53.140;6.498;2023-05-10T12:37:57;9.30;;;3.90;;
52878;SDS011;38747;53.140;6.498;2023-05-10T12:40:23;9.00;;;4.05;;
52878;SDS011;38747;53.140;6.498;2023-05-10T12:42:48;8.20;;;3.87;;
52878;SDS011;38747;53.140;6.498;2023-05-10T12:45:14;8.63;;;4.15;;
52878;SDS011;38747;53.140;6.498;2023-05-10T12:47:42;10.82;;;4.28;;
52878;SDS011;38747;53.140;6.498;2023-05-10T12:50:08;9.43;;;4.30;;
52878;SDS011;38747;53.140;6.498;2023-05-10T12:52:33;8.35;;;3.95;;
52878;SDS011;38747;53.140;6.498;2023-05-10T12:54:59;7.95;;;3.70;;
52878;SDS011;38747;53.140;6.498;2023-05-10T12:57:26;8.20;;;3.70;;
52878;SDS011;38747;53.140;6.498;2023-05-10T12:59:52;8.13;;;3.67;;
52878;SDS011;38747;53.140;6.498;2023-05-10T13:02:18;8.02;;;3.90;;
52878;SDS011;38747;53.140;6.498;2023-05-10T13:04:45;7.80;;;3.65;;
52878;SDS011;38747;53.140;6.498;2023-05-10T13:07:11;8.85;;;3.90;;
52878;SDS011;38747;53.140;6.498;2023-05-10T13:09:37;8.65;;;3.30;;
52878;SDS011;38747;53.140;6.498;2023-05-10T13:12:03;7.87;;;3.50;;
52878;SDS011;38747;53.140;6.498;2023-05-10T13:14:29;6.90;;;3.00;;
52878;SDS011;38747;53.140;6.498;2023-05-10T13:16:55;8.47;;;3.60;;
52878;SDS011;38747;53.140;6.498;2023-05-10T13:19:21;7.75;;;3.40;;
52878;SDS011;38747;53.140;6.498;2023-05-10T13:21:46;8.73;;;3.70;;
52878;SDS011;38747;53.140;6.498;2023-05-10T13:24:12;8.20;;;3.45;;
52878;SDS011;38747;53.140;6.498;2023-05-10T13:26:41;9.50;;;3.67;;
52878;SDS011;38747;53.140;6.498;2023-05-10T13:29:07;9.07;;;3.57;;
52878;SDS011;38747;53.140;6.498;2023-05-10T13:31:34;9.45;;;3.88;;
52878;SDS011;38747;53.140;6.498;2023-05-10T13:34:00;7.78;;;3.60;;
52878;SDS011;38747;53.140;6.498;2023-05-10T13:36:25;9.27;;;3.63;;
52878;SDS011;38747;53.140;6.498;2023-05-10T13:38:51;7.67;;;3.63;;
52878;SDS011;38747;53.140;6.498;2023-05-10T13:41:17;8.73;;;3.88;;
52878;SDS011;38747;53.140;6.498;2023-05-10T13:43:42;7.90;;;3.57;;
52878;SDS011;38747;53.140;6.498;2023-05-10T13:46:08;8.07;;;3.85;;
52878;SDS011;38747;53.140;6.498;2023-05-10T13:48:33;9.03;;;3.53;;
52878;SDS011;38747;53.140;6.498;2023-05-10T13:50:59;8.67;;;3.60;;
52878;SDS011;38747;53.140;6.498;2023-05-10T13:53:25;8.88;;;3.55;;
52878;SDS011;38747;53.140;6.498;2023-05-10T13:55:50;7.10;;;3.27;;
52878;SDS011;38747;53.140;6.498;2023-05-10T13:58:16;8.18;;;4.03;;
52878;SDS011;38747;53.140;6.498;2023-05-10T14:00:42;8.57;;;3.63;;
52878;SDS011;38747;53.140;6.498;2023-05-10T14:03:07;7.30;;;3.33;;
52878;SDS011;38747;53.140;6.498;2023-05-10T14:05:35;5.47;;;2.40;;
52878;SDS011;38747;53.140;6.498;2023-05-10T14:08:01;7.53;;;2.93;;
52878;SDS011;38747;53.140;6.498;2023-05-10T14:10:28;6.63;;;2.90;;
52878;SDS011;38747;53.140;6.498;2023-05-10T14:12:55;6.53;;;2.65;;
52878;SDS011;38747;53.140;6.498;2023-05-10T14:15:20;6.43;;;3.03;;
52878;SDS011;38747;53.140;6.498;2023-05-10T14:17:46;7.70;;;3.10;;
52878;SDS011;38747;53.140;6.498;2023-05-10T14:20:11;7.27;;;2.70;;
52878;SDS011;38747;53.140;6.498;2023-05-10T14:22:37;6.85;;;3.17;;
52878;SDS011;38747;53.140;6.498;2023-05-10T14:25:03;7.77;;;3.30;;
52878;SDS011;38747;53.140;6.498;2023-05-10T14:27:29;7.28;;;3.33;;
52878;SDS011;38747;53.140;6.498;2023-05-10T14:29:55;7.82;;;3.83;;
52878;SDS011;38747;53.140;6.498;2023-05-10T14:32:20;7.43;;;3.33;;
52878;SDS011;38747;53.140;6.498;2023-05-10T14:34:46;10.18;;;3.83;;
52878;SDS011;38747;53.140;6.498;2023-05-10T14:37:13;8.33;;;3.50;;
52878;SDS011;38747;53.140;6.498;2023-05-10T14:39:39;6.90;;;3.53;;
52878;SDS011;38747;53.140;6.498;2023-05-10T14:42:04;7.97;;;3.80;;
52878;SDS011;38747;53.140;6.498;2023-05-10T14:44:30;8.30;;;3.80;;
52878;SDS011;38747;53.140;6.498;2023-05-10T14:46:56;8.52;;;4.20;;
52878;SDS011;38747;53.140;6.498;2023-05-10T14:49:22;9.20;;;4.30;;
52878;SDS011;38747;53.140;6.498;2023-05-10T14:51:50;9.48;;;4.40;;
52878;SDS011;38747;53.140;6.498;2023-05-10T14:54:16;8.93;;;4.10;;
52878;SDS011;38747;53.140;6.498;2023-05-10T14:56:42;8.37;;;4.53;;
52878;SDS011;38747;53.140;6.498;2023-05-10T14:59:07;8.93;;;4.23;;
52878;SDS011;38747;53.140;6.498;2023-05-10T15:01:33;9.48;;;4.55;;
52878;SDS011;38747;53.140;6.498;2023-05-10T15:04:02;10.30;;;5.00;;
52878;SDS011;38747;53.140;6.498;2023-05-10T15:06:31;9.35;;;4.50;;
52878;SDS011;38747;53.140;6.498;2023-05-10T15:08:57;20.20;;;7.78;;
52878;SDS011;38747;53.140;6.498;2023-05-10T15:11:23;10.13;;;4.53;;
52878;SDS011;38747;53.140;6.498;2023-05-10T15:13:49;13.27;;;5.30;;
52878;SDS011;38747;53.140;6.498;2023-05-10T15:16:14;8.82;;;4.35;;
52878;SDS011;38747;53.140;6.498;2023-05-10T15:18:40;9.77;;;4.70;;
52878;SDS011;38747;53.140;6.498;2023-05-10T15:21:06;9.52;;;5.25;;
52878;SDS011;38747;53.140;6.498;2023-05-10T15:23:31;11.53;;;5.83;;
52878;SDS011;38747;53.140;6.498;2023-05-10T15:25:57;11.18;;;5.82;;
52878;SDS011;38747;53.140;6.498;2023-05-10T15:28:22;11.00;;;5.60;;